Time;durP1;ratioP1;P1;durP2;ratioP2;P2;SDS_P1;SDS_P2;PMS_P1;PMS_P2;Temp;Humidity;BMP_temperature;BMP_pressure;BME280_temperature;BME280_humidity;BME280_pressure;Samples;Min_cycle;Max_cycle;Signal;HPM_P1;HPM_P2
2023/10/15 00:02:27;;;;;;;16.00;8.25;;;;;;;16.35;81.23;99301.34;6194439;28;20084;-72
2023/10/15 00:05:28;;;;;;;;;;;;;;;16.42;80.73;99309.47;6193694;28;20050;-72
2023/10/15 00:08:29;;;;;;;21.02;8.57;;;;;;;16.31;80.92;99302.63;6194830;28;19929;-71
2023/10/15 00:11:30;;;;;;;18.15;9.20;;;;;;;16.38;80.53;99300.19;6193335;28;20054;-71
2023/10/15 00:14:31;;;;;;;25.00;8.63;;;;;;;16.41;80.43;99297.25;6193047;28;20096;-71
2023/10/15 00:17:32;;;;;;;15.07;8.75;;;;;;;16.39;80.47;99302.69;6193082;28;20054;-71
2023/10/15 00:20:36;;;;;;;12.98;7.88;;;;;;;16.33;80.50;99303.28;6192826;28;20061;-71
2023/10/15 00:23:37;;;;;;;16.17;7.70;;;;;;;16.43;80.38;99306.69;6193197;28;20047;-71
2023/10/15 00:26:38;;;;;;;16.27;8.70;;;;;;;16.49;79.94;99306.09;6193935;28;20420;-71
2023/10/15 00:29:39;;;;;;;16.98;8.15;;;;;;;16.46;80.03;99297.66;6194294;28;20053;-71
2023/10/15 00:32:44;;;;;;;24.60;8.27;;;;;;;16.45;80.00;99296.84;6216342;28;20089;-71
2023/10/15 00:35:50;;;;;;;11.70;7.20;;;;;;;16.45;79.84;99302.09;6217127;28;20089;-71
2023/10/15 00:38:51;;;;;;;16.17;7.93;;;;;;;16.43;80.04;99292.66;6218096;28;20089;-71
2023/10/15 00:41:53;;;;;;;21.80;8.98;;;;;;;16.42;79.52;99299.75;6217869;28;20054;-71
2023/10/15 00:44:54;;;;;;;19.15;8.20;;;;;;;16.42;80.25;99312.91;6216791;28;20072;-71
2023/10/15 00:48:07;;;;;;;19.17;8.63;;;;;;;16.42;80.03;99297.13;6216890;28;20049;-71
2023/10/15 00:51:13;;;;;;;13.93;7.63;;;;;;;16.40;79.41;99304.34;6220916;28;20054;-71
2023/10/15 00:54:16;;;;;;;19.48;7.95;;;;;;;16.45;79.83;99303.88;6220731;28;20058;-71
2023/10/15 00:57:26;;;;;;;14.10;8.68;;;;;;;16.46;79.64;99302.91;6222255;28;20078;-71
2023/10/15 01:00:51;;;;;;;14.00;8.05;;;;;;;16.42;80.23;99299.75;6221999;28;20045;-71
2023/10/15 01:03:57;;;;;;;18.25;8.02;;;;;;;16.31;80.37;99298.16;6221975;28;20136;-71
2023/10/15 01:07:13;;;;;;;13.00;8.13;;;;;;;16.30;81.18;99288.59;6220844;28;20062;-71
2023/10/15 01:10:36;;;;;;;13.65;8.10;;;;;;;16.33;80.92;99292.75;6221700;28;20489;-70
2023/10/15 01:13:38;;;;;;;12.77;7.88;;;;;;;16.30;81.07;99296.50;6220595;28;20544;-71
2023/10/15 01:16:42;;;;;;;20.13;9.38;;;;;;;16.34;80.60;99296.22;6221295;28;20058;-70
2023/10/15 01:19:43;;;;;;;15.77;8.88;;;;;;;16.27;80.78;99283.66;6222683;28;20079;-71
2023/10/15 01:22:45;;;;;;;15.45;9.02;;;;;;;16.22;80.18;99288.50;6222516;28;20083;-72
2023/10/15 01:25:48;;;;;;;22.17;9.13;;;;;;;16.24;80.15;99277.84;6220467;28;20551;-72
2023/10/15 01:28:51;;;;;;;15.85;8.07;;;;;;;16.20;80.01;99276.50;6220489;28;20506;-72
2023/10/15 01:31:56;;;;;;;20.08;9.27;;;;;;;16.15;80.04;99282.19;6222370;28;20054;-72
2023/10/15 01:34:59;;;;;;;16.77;9.00;;;;;;;16.24;79.81;99285.75;6222177;28;20454;-72
2023/10/15 01:38:21;;;;;;;16.65;7.97;;;;;;;16.25;79.15;99282.16;6220910;28;20092;-71
2023/10/15 01:41:25;;;;;;;21.65;9.15;;;;;;;16.20;79.15;99281.75;6221634;28;20160;-71
2023/10/15 01:44:27;;;;;;;19.92;8.68;;;;;;;16.21;79.20;99278.16;6221480;28;20054;-71
2023/10/15 01:47:29;;;;;;;20.77;8.43;;;;;;;16.23;79.38;99284.09;6222079;28;20057;-71
2023/10/15 01:50:40;;;;;;;12.93;8.47;;;;;;;16.28;78.71;99281.84;6221040;28;20127;-71
2023/10/15 01:53:41;;;;;;;17.10;8.93;;;;;;;16.22;79.11;99279.78;6221727;28;20062;-71
2023/10/15 01:56:45;;;;;;;22.38;9.60;;;;;;;16.24;79.32;99283.09;6220338;28;20505;-72
2023/10/15 01:59:46;;;;;;;16.25;9.15;;;;;;;16.26;79.25;99275.88;6221889;28;20085;-71
2023/10/15 02:02:48;;;;;;;15.55;8.40;;;;;;;16.28;79.33;99279.19;6219236;28;20060;-71
2023/10/15 02:05:54;;;;;;;20.65;8.98;;;;;;;16.26;79.81;99274.06;6220476;28;20133;-72
2023/10/15 02:08:56;;;;;;;16.70;10.23;;;;;;;16.26;79.64;99268.81;6220600;28;20046;-71
2023/10/15 02:11:57;;;;;;;;;;;;;;;16.30;79.60;99264.91;6221171;28;20056;-71
2023/10/15 02:15:14;;;;;;;20.00;9.48;;;;;;;16.31;79.52;99257.84;6220639;28;19922;-71
2023/10/15 02:18:19;;;;;;;20.05;9.80;;;;;;;16.23;79.51;99258.59;6219481;28;20050;-71
2023/10/15 02:21:19;;;;;;;18.65;10.10;;;;;;;16.22;79.98;99267.47;6219214;28;20060;-71
2023/10/15 02:24:23;;;;;;;18.40;9.75;;;;;;;16.27;80.56;99272.28;6220486;28;20460;-71
2023/10/15 02:27:24;;;;;;;24.35;10.05;;;;;;;15.83;82.86;99311.59;6220073;28;20050;-71
2023/10/15 02:30:25;;;;;;;17.05;9.18;;;;;;;15.55;85.77;99290.50;6220310;28;20087;-71
2023/10/15 02:33:27;;;;;;;15.27;8.57;;;;;;;15.81;84.88;99326.69;6220631;28;20050;-71
2023/10/15 02:36:30;;;;;;;15.50;9.15;;;;;;;15.81;86.19;99316.16;6218834;28;20421;-70
2023/10/15 02:39:36;;;;;;;19.33;9.57;;;;;;;16.06;85.18;99318.13;6220206;28;20133;-72
2023/10/15 02:42:36;;;;;;;22.02;8.48;;;;;;;16.23;85.45;99311.25;6219949;28;20057;-71
2023/10/15 02:45:43;;;;;;;19.85;8.63;;;;;;;16.29;85.34;99315.09;6218994;28;20046;-72
2023/10/15 02:48:44;;;;;;;20.67;8.77;;;;;;;16.35;86.27;99316.28;6219894;28;20046;-71
2023/10/15 02:51:45;;;;;;;27.95;8.65;;;;;;;16.42;86.37;99328.72;6220024;28;20067;-71
2023/10/15 02:54:46;;;;;;;11.35;7.68;;;;;;;16.48;85.96;99337.81;6219659;28;20479;-70
2023/10/15 02:57:51;;;;;;;16.80;8.52;;;;;;;16.50;86.42;99339.31;6218697;28;20075;-70
2023/10/15 03:01:06;;;;;;;22.08;8.30;;;;;;;16.54;85.81;99337.22;6213505;28;20060;-71
2023/10/15 03:04:09;;;;;;;19.75;8.40;;;;;;;16.50;85.94;99341.13;6218448;28;20429;-71
2023/10/15 03:10:44;;;;;;;22.35;8.63;;;;;;;16.47;86.25;99351.94;6219539;28;20057;-72
2023/10/15 03:16:56;;;;;;;19.70;8.77;;;;;;;16.46;87.53;99359.03;6219425;28;20132;-71
2023/10/15 03:20:10;;;;;;;13.98;9.10;;;;;;;16.35;88.51;99363.66;6219176;28;20133;-72
2023/10/15 03:23:16;;;;;;;13.32;8.30;;;;;;;16.32;88.41;99370.06;6219179;28;20046;-71
2023/10/15 03:26:20;;;;;;;14.95;8.43;;;;;;;16.34;88.38;99365.47;6219143;28;20050;-71
2023/10/15 03:29:23;;;;;;;14.88;7.15;;;;;;;16.30;87.62;99351.78;6217909;28;20053;-71
2023/10/15 03:32:31;;;;;;;12.40;7.13;;;;;;;16.23;88.18;99349.91;6218886;28;20134;-71
2023/10/15 03:35:38;;;;;;;16.27;7.50;;;;;;;16.13;87.49;99357.84;6217494;28;20107;-71
2023/10/15 03:38:46;;;;;;;9.90;6.07;;;;;;;16.00;87.19;99373.13;6218313;28;20057;-71
2023/10/15 03:41:52;;;;;;;9.75;6.13;;;;;;;15.89;88.31;99379.41;6196697;28;20086;-71
2023/10/15 03:44:59;;;;;;;10.02;5.00;;;;;;;15.79;86.33;99384.69;6194323;28;20096;-71
2023/10/15 03:48:01;;;;;;;10.30;4.45;;;;;;;15.85;85.88;99393.81;6193481;28;20490;-71
2023/10/15 03:51:05;;;;;;;9.77;4.00;;;;;;;15.80;85.15;99391.63;6193239;28;20062;-71
2023/10/15 03:54:13;;;;;;;5.93;3.30;;;;;;;15.74;85.38;99396.63;6193691;28;20054;-71
2023/10/15 03:57:18;;;;;;;11.40;3.42;;;;;;;15.65;85.30;99396.47;6194299;28;20042;-74
2023/10/15 04:00:46;;;;;;;6.10;3.15;;;;;;;15.64;85.79;99400.06;6193171;28;20054;-71
2023/10/15 04:03:47;;;;;;;5.53;2.90;;;;;;;15.65;85.61;99404.38;6194103;28;20074;-72
2023/10/15 04:07:10;;;;;;;3.80;2.20;;;;;;;15.40;85.60;99411.06;6194283;28;20076;-73
2023/10/15 04:10:12;;;;;;;1.88;1.27;;;;;;;15.30;85.26;99411.06;6193159;28;20051;-73
2023/10/15 04:13:16;;;;;;;2.22;1.30;;;;;;;15.38;85.55;99404.25;6192692;28;20517;-73
2023/10/15 04:16:17;;;;;;;1.55;1.00;;;;;;;15.29;85.65;99411.19;6193908;28;20053;-73
2023/10/15 04:19:18;;;;;;;1.70;0.95;;;;;;;15.16;86.70;99436.94;6192523;28;20411;-71
2023/10/15 04:22:18;;;;;;;0.73;0.60;;;;;;;14.86;88.34;99447.38;6192752;28;20514;-71
2023/10/15 04:25:25;;;;;;;0.60;0.57;;;;;;;14.94;89.20;99430.97;6194589;28;20058;-71
2023/10/15 04:28:28;;;;;;;0.85;0.63;;;;;;;14.76;90.83;99432.59;6198306;28;20422;-70
2023/10/15 04:31:31;;;;;;;0.65;0.47;;;;;;;14.84;91.37;99451.13;6197400;28;20062;-71
2023/10/15 04:34:32;;;;;;;1.63;0.80;;;;;;;14.56;94.67;99468.47;6198134;28;20097;-71
2023/10/15 04:37:36;;;;;;;1.37;0.63;;;;;;;14.43;96.47;99468.66;6197125;28;20046;-71
2023/10/15 04:43:53;;;;;;;5.45;0.90;;;;;;;14.40;99.04;99442.69;6198243;28;20047;-70
2023/10/15 04:47:04;;;;;;;0.70;0.60;;;;;;;14.18;100.00;99455.03;6198019;28;20050;-71
2023/10/15 04:50:14;;;;;;;1.58;0.73;;;;;;;14.10;100.00;99474.06;6196945;28;20051;-71
2023/10/15 04:56:22;;;;;;;1.00;0.50;;;;;;;13.99;100.00;99468.06;6197998;28;20054;-71
2023/10/15 04:59:25;;;;;;;1.02;0.63;;;;;;;13.91;100.00;99481.81;6197750;28;20054;-71
2023/10/15 05:02:30;;;;;;;1.10;0.50;;;;;;;13.89;100.00;99494.22;6204266;28;20060;-71
2023/10/15 05:05:34;;;;;;;1.13;0.50;;;;;;;13.85;100.00;99506.75;6205446;28;20351;-71
2023/10/15 05:08:35;;;;;;;1.63;0.80;;;;;;;13.68;100.00;99504.72;6196313;28;20495;-71
2023/10/15 05:11:36;;;;;;;6.38;0.68;;;;;;;13.63;100.00;99515.59;6197438;28;20092;-71
2023/10/15 05:14:39;;;;;;;1.35;0.80;;;;;;;13.42;100.00;99512.91;6197402;28;20054;-72
2023/10/15 05:17:42;;;;;;;0.93;0.60;;;;;;;13.50;100.00;99510.50;6197480;28;20141;-73
2023/10/15 05:20:45;;;;;;;1.65;0.82;;;;;;;13.13;100.00;99511.78;6196160;28;20078;-74
2023/10/15 05:23:46;;;;;;;1.52;0.52;;;;;;;13.21;100.00;99504.16;6298487;28;20417;-72
2023/10/15 05:26:48;;;;;;;1.92;0.70;;;;;;;13.25;100.00;99492.47;6197231;28;20054;-71
2023/10/15 05:29:49;;;;;;;1.75;0.60;;;;;;;13.22;100.00;99500.56;6197253;28;20476;-74
2023/10/15 05:32:50;;;;;;;1.58;0.55;;;;;;;13.28;100.00;99485.19;6215438;28;20075;-72
2023/10/15 05:35:56;;;;;;;1.02;0.70;;;;;;;13.13;100.00;99496.06;6213182;28;20528;-72
2023/10/15 05:38:57;;;;;;;1.15;0.65;;;;;;;13.17;100.00;99479.97;6213758;28;20064;-72
2023/10/15 05:41:58;;;;;;;2.03;1.05;;;;;;;13.28;100.00;99477.34;6208522;28;20050;-71
2023/10/15 05:45:00;;;;;;;2.45;0.85;;;;;;;13.23;100.00;99474.25;6210730;28;20124;-71
2023/10/15 05:48:01;;;;;;;0.90;0.63;;;;;;;13.36;100.00;99478.50;6207309;28;20046;-73
2023/10/15 05:51:03;;;;;;;1.83;0.95;;;;;;;13.26;100.00;99470.53;6216668;28;20524;-73
2023/10/15 05:54:04;;;;;;;1.45;0.80;;;;;;;13.20;100.00;99490.22;6219901;28;20054;-73
2023/10/15 05:57:08;;;;;;;2.40;1.10;;;;;;;13.25;100.00;99501.16;6215306;28;20417;-73
2023/10/15 06:00:19;;;;;;;2.28;0.95;;;;;;;13.28;100.00;99486.97;6218601;28;20061;-73
2023/10/15 06:03:20;;;;;;;2.50;1.08;;;;;;;13.34;100.00;99477.81;6218099;28;20050;-73
2023/10/15 06:06:21;;;;;;;0.75;0.65;;;;;;;13.21;100.00;99472.72;6207157;28;20455;-73
2023/10/15 06:09:22;;;;;;;4.55;1.27;;;;;;;13.18;100.00;99479.03;6219138;28;20050;-73
2023/10/15 06:12:23;;;;;;;1.90;1.00;;;;;;;13.19;100.00;99479.88;6211346;28;20099;-73
2023/10/15 06:15:23;;;;;;;2.80;0.90;;;;;;;13.22;100.00;99490.94;6214392;28;20053;-73
2023/10/15 06:18:24;;;;;;;1.60;0.80;;;;;;;13.26;99.69;99492.34;6217160;28;20088;-73
2023/10/15 06:21:25;;;;;;;4.00;1.25;;;;;;;13.40;98.19;99514.81;6219250;28;20052;-73
2023/10/15 06:24:26;;;;;;;1.42;1.10;;;;;;;13.29;97.50;99507.84;6213456;28;20051;-73
2023/10/15 06:27:27;;;;;;;4.22;1.20;;;;;;;13.24;98.18;99496.88;6198376;28;20054;-73
2023/10/15 06:30:28;;;;;;;2.03;0.90;;;;;;;13.28;97.40;99500.91;6297145;27;20053;-73
2023/10/15 06:33:29;;;;;;;4.22;1.35;;;;;;;13.34;95.31;99509.25;6199512;28;20134;-73
2023/10/15 06:36:30;;;;;;;3.72;1.20;;;;;;;13.29;97.57;99499.97;6200663;28;20047;-73
2023/10/15 06:39:33;;;;;;;1.50;1.23;;;;;;;13.30;96.18;99508.66;6200842;28;20417;-73
2023/10/15 06:42:35;;;;;;;2.42;1.40;;;;;;;13.42;95.82;99515.53;6202122;28;20145;-73
2023/10/15 06:45:38;;;;;;;3.85;1.52;;;;;;;13.38;95.63;99519.34;6200766;28;20095;-73
2023/10/15 06:48:44;;;;;;;7.80;2.00;;;;;;;13.36;95.36;99517.81;6200268;28;20065;-73
2023/10/15 06:51:45;;;;;;;2.95;1.40;;;;;;;13.17;97.36;99507.97;6198974;28;20508;-73
2023/10/15 06:54:47;;;;;;;4.50;1.77;;;;;;;13.32;97.37;99500.69;6201728;28;20066;-73
2023/10/15 06:57:49;;;;;;;3.80;1.20;;;;;;;13.42;97.42;99510.28;6201290;28;20098;-73
2023/10/15 07:00:50;;;;;;;4.00;1.40;;;;;;;13.26;97.44;99501.97;6200245;28;20062;-73
2023/10/15 07:03:53;;;;;;;4.97;1.63;;;;;;;13.20;97.89;99512.94;6200167;28;20088;-74
2023/10/15 07:06:56;;;;;;;4.50;1.60;;;;;;;13.00;98.18;99515.38;6200054;28;20140;-73
2023/10/15 07:09:59;;;;;;;4.50;1.88;;;;;;;13.18;97.73;99536.66;6201843;28;20482;-73
2023/10/15 07:13:01;;;;;;;5.72;1.60;;;;;;;13.25;96.88;99550.94;6199967;28;20054;-73
2023/10/15 07:16:02;;;;;;;3.22;1.10;;;;;;;13.15;96.94;99554.41;6210026;28;20060;-73
2023/10/15 07:19:04;;;;;;;5.97;1.63;;;;;;;13.17;95.72;99550.72;6217664;28;20054;-73
2023/10/15 07:22:05;;;;;;;2.35;0.98;;;;;;;13.12;97.84;99552.88;6215541;28;20050;-73
2023/10/15 07:25:08;;;;;;;4.68;1.10;;;;;;;13.32;97.37;99551.28;6217329;28;20046;-73
2023/10/15 07:28:10;;;;;;;16.85;3.92;;;;;;;13.21;96.59;99556.53;6195064;28;20047;-73
2023/10/15 07:31:13;;;;;;;7.97;2.77;;;;;;;13.26;97.37;99570.09;6195042;28;20058;-73
2023/10/15 07:34:15;;;;;;;7.32;2.00;;;;;;;13.13;98.65;99585.94;6194861;28;20344;-73
2023/10/15 07:37:15;;;;;;;3.25;1.50;;;;;;;13.22;98.80;99577.38;6205511;28;20046;-73
2023/10/15 07:40:17;;;;;;;12.32;1.85;;;;;;;13.38;98.91;99581.41;6194662;28;20054;-74
2023/10/15 07:43:21;;;;;;;8.68;1.45;;;;;;;13.44;99.11;99575.69;6210970;28;20098;-74
2023/10/15 07:46:21;;;;;;;6.20;1.27;;;;;;;13.52;97.49;99575.91;6218838;28;20046;-74
2023/10/15 07:49:25;;;;;;;3.10;1.40;;;;;;;13.33;99.44;99591.44;6219106;28;20102;-73
2023/10/15 07:52:26;;;;;;;4.55;1.50;;;;;;;13.36;97.89;99584.16;6196066;28;20570;-73
2023/10/15 07:55:27;;;;;;;5.72;1.30;;;;;;;13.29;99.98;99569.88;6217481;28;20060;-73
2023/10/15 07:58:28;;;;;;;5.75;1.38;;;;;;;13.42;98.61;99575.78;6217267;28;20500;-73
2023/10/15 08:01:31;;;;;;;1.98;1.17;;;;;;;13.44;99.74;99552.91;6216927;28;20124;-73
2023/10/15 08:04:31;;;;;;;2.65;1.45;;;;;;;13.39;97.90;99562.97;6217674;28;20109;-73
2023/10/15 08:07:36;;;;;;;3.42;1.33;;;;;;;13.41;99.09;99568.91;6217288;28;20053;-74
2023/10/15 08:10:38;;;;;;;3.53;1.73;;;;;;;13.48;97.92;99564.81;6217256;28;20057;-74
2023/10/15 08:13:39;;;;;;;4.50;1.17;;;;;;;13.32;99.21;99558.31;6217352;28;20053;-73
2023/10/15 08:16:40;;;;;;;3.60;1.60;;;;;;;13.35;98.58;99572.03;6193095;28;20080;-73
2023/10/15 08:19:41;;;;;;;4.03;1.42;;;;;;;13.24;98.88;99580.72;6202178;28;20104;-74
2023/10/15 08:22:44;;;;;;;12.45;2.03;;;;;;;13.25;98.97;99584.97;6194343;28;20502;-73
2023/10/15 08:25:45;;;;;;;4.07;1.70;;;;;;;13.25;99.40;99581.53;6217026;28;20493;-74
2023/10/15 08:28:48;;;;;;;10.70;1.25;;;;;;;13.39;98.28;99556.88;6217474;28;20077;-74
2023/10/15 08:31:49;;;;;;;4.20;1.48;;;;;;;13.38;97.95;99565.69;6208267;28;20051;-74
2023/10/15 08:34:50;;;;;;;2.75;1.40;;;;;;;13.40;99.23;99588.19;6297479;28;20069;-74
2023/10/15 08:37:54;;;;;;;4.93;1.70;;;;;;;13.34;98.37;99583.44;6193618;28;20047;-73
2023/10/15 08:40:56;;;;;;;7.57;1.77;;;;;;;13.15;100.00;99577.97;6192643;28;20308;-73
2023/10/15 08:43:57;;;;;;;6.75;1.90;;;;;;;13.23;100.00;99586.88;6193735;28;20082;-73
2023/10/15 08:47:01;;;;;;;11.63;2.03;;;;;;;13.33;100.00;99613.22;6192452;28;20051;-72
2023/10/15 08:50:02;;;;;;;5.03;2.10;;;;;;;13.16;100.00;99613.69;6193626;28;20502;-74
2023/10/15 08:53:06;;;;;;;4.97;2.17;;;;;;;13.06;100.00;99624.91;6193581;28;20107;-74
2023/10/15 08:56:09;;;;;;;5.82;1.98;;;;;;;13.20;100.00;99621.22;6193586;28;20057;-73
2023/10/15 08:59:11;;;;;;;3.42;1.65;;;;;;;13.27;100.00;99611.06;6192734;28;20052;-73
2023/10/15 09:02:15;;;;;;;2.35;1.65;;;;;;;13.35;100.00;99605.25;6211498;28;20103;-73
2023/10/15 09:05:16;;;;;;;8.05;2.20;;;;;;;13.51;100.00;99613.56;6217668;28;20054;-73
2023/10/15 09:08:17;;;;;;;10.65;2.40;;;;;;;13.58;100.00;99624.38;6216438;28;20125;-72
2023/10/15 09:11:19;;;;;;;4.60;2.22;;;;;;;13.55;100.00;99625.47;6218248;28;20421;-73
2023/10/15 09:14:39;;;;;;;7.18;2.20;;;;;;;13.54;100.00;99621.16;6221842;28;20108;-73
2023/10/15 09:17:40;;;;;;;7.10;2.00;;;;;;;13.38;100.00;99633.81;6220517;28;20061;-73
2023/10/15 09:20:45;;;;;;;5.65;2.08;;;;;;;13.32;100.00;99650.03;6221714;28;20054;-72
2023/10/15 09:23:48;;;;;;;5.38;1.95;;;;;;;13.36;100.00;99646.22;6220316;28;20054;-73
2023/10/15 09:26:50;;;;;;;13.88;2.35;;;;;;;13.61;99.26;99647.72;6211310;28;20402;-73
2023/10/15 09:30:14;;;;;;;7.53;3.25;;;;;;;13.41;99.45;99641.47;6199172;28;20696;-73
2023/10/15 09:33:17;;;;;;;7.82;2.95;;;;;;;13.57;98.94;99647.16;6221797;28;20050;-73
2023/10/15 09:36:18;;;;;;;7.50;2.67;;;;;;;13.70;99.15;99641.75;6210299;28;20099;-72
2023/10/15 09:39:19;;;;;;;3.30;1.92;;;;;;;13.35;100.00;99644.56;6195775;28;20050;-72
2023/10/15 09:42:21;;;;;;;6.55;2.55;;;;;;;13.34;100.00;99643.72;6205777;28;20057;-75
2023/10/15 09:45:25;;;;;;;4.07;2.15;;;;;;;13.47;100.00;99649.66;6217315;28;20050;-75
2023/10/15 09:48:27;;;;;;;6.15;2.30;;;;;;;13.56;100.00;99645.47;6195576;28;20070;-76
2023/10/15 09:51:32;;;;;;;6.18;2.30;;;;;;;13.52;100.00;99658.94;6218031;28;20050;-75
2023/10/15 09:54:34;;;;;;;8.52;2.72;;;;;;;13.52;100.00;99646.66;6219690;28;20085;-76
2023/10/15 09:57:35;;;;;;;4.40;2.13;;;;;;;13.62;100.00;99652.00;6216058;28;20048;-75
2023/10/15 10:00:46;;;;;;;6.10;2.05;;;;;;;13.60;100.00;99644.25;6212257;28;20054;-75
2023/10/15 10:03:47;;;;;;;4.90;2.40;;;;;;;13.56;100.00;99642.84;6221051;28;20075;-75
2023/10/15 10:06:51;;;;;;;4.38;1.83;;;;;;;13.61;100.00;99621.50;6221173;28;20046;-75
2023/10/15 10:10:19;;;;;;;3.08;1.58;;;;;;;13.52;100.00;99619.63;6219644;28;20058;-75
2023/10/15 10:13:43;;;;;;;5.03;1.95;;;;;;;13.80;100.00;99611.19;6219343;28;20506;-76
2023/10/15 10:16:45;;;;;;;9.68;2.40;;;;;;;13.79;100.00;99612.16;6219388;28;20552;-75
2023/10/15 10:19:53;;;;;;;3.60;1.87;;;;;;;13.63;100.00;99612.56;6218603;28;20133;-73
2023/10/15 10:23:04;;;;;;;4.63;1.92;;;;;;;13.25;100.00;99607.75;6206736;28;20062;-74
2023/10/15 10:26:14;;;;;;;8.35;1.80;;;;;;;13.13;100.00;99621.81;6219125;28;20482;-74
2023/10/15 10:29:16;;;;;;;5.45;1.50;;;;;;;13.11;100.00;99627.16;6218944;28;20061;-74
2023/10/15 10:32:20;;;;;;;3.55;1.50;;;;;;;13.20;99.72;99612.50;6205482;28;20046;-74
2023/10/15 10:35:23;;;;;;;2.47;1.42;;;;;;;13.19;98.73;99616.06;6208597;28;20053;-73
2023/10/15 10:38:24;;;;;;;5.43;1.40;;;;;;;13.19;98.19;99613.47;6219141;28;20661;-74
2023/10/15 10:41:39;;;;;;;2.83;1.20;;;;;;;13.21;96.67;99612.38;6218872;28;20077;-73
2023/10/15 10:44:40;;;;;;;5.45;1.42;;;;;;;13.08;95.26;99606.44;6218705;28;20054;-73
2023/10/15 10:47:47;;;;;;;4.22;1.27;;;;;;;13.35;96.01;99586.91;6217387;28;20053;-73
2023/10/15 10:50:48;;;;;;;4.30;1.52;;;;;;;13.33;96.16;99587.03;6218607;28;20153;-73
2023/10/15 10:53:55;;;;;;;4.13;1.35;;;;;;;12.98;91.99;99601.09;6196467;28;20085;-73
2023/10/15 10:56:58;;;;;;;4.53;1.48;;;;;;;13.19;93.15;99593.31;6194364;28;20077;-73
2023/10/15 11:00:05;;;;;;;4.90;1.38;;;;;;;13.03;91.97;99585.88;6194792;28;20561;-73
2023/10/15 11:03:08;;;;;;;5.13;1.45;;;;;;;12.98;93.25;99571.47;6217965;28;20088;-72
2023/10/15 11:06:12;;;;;;;17.52;10.25;;;;;;;12.93;91.68;99566.59;6217914;28;20050;-73
2023/10/15 11:09:16;;;;;;;7.28;2.40;;;;;;;12.73;91.43;99591.69;6219406;28;20463;-73
2023/10/15 11:12:18;;;;;;;4.90;1.35;;;;;;;13.02;92.38;99584.19;6218136;28;20390;-73
2023/10/15 11:15:20;;;;;;;8.52;4.28;;;;;;;13.12;90.74;99571.22;6218322;28;20053;-73
2023/10/15 11:18:24;;;;;;;5.40;1.95;;;;;;;13.03;91.59;99601.59;6215389;28;20502;-73
2023/10/15 11:21:25;;;;;;;6.95;2.05;;;;;;;12.86;92.92;99599.44;6208482;28;20061;-74
2023/10/15 11:24:27;;;;;;;5.70;2.20;;;;;;;13.04;93.54;99610.25;6197692;28;20054;-73
2023/10/15 11:27:31;;;;;;;7.50;2.30;;;;;;;13.06;94.54;99597.88;6215699;28;20057;-74
2023/10/15 11:30:33;;;;;;;5.80;1.75;;;;;;;13.07;94.42;99613.47;6216973;28;20482;-74
2023/10/15 11:33:34;;;;;;;3.53;1.85;;;;;;;12.97;97.10;99617.78;6218724;28;20092;-73
2023/10/15 11:36:36;;;;;;;5.43;1.50;;;;;;;13.07;98.45;99610.88;6217190;28;20042;-73
2023/10/15 11:42:50;;;;;;;4.82;1.35;;;;;;;13.01;99.20;99613.09;6218602;28;20050;-73
2023/10/15 11:45:56;;;;;;;6.15;1.67;;;;;;;12.89;100.00;99625.41;6219008;28;20194;-73
2023/10/15 11:49:01;;;;;;;3.05;1.23;;;;;;;12.67;100.00;99623.59;6218880;28;20081;-73
2023/10/15 11:52:05;;;;;;;7.60;2.10;;;;;;;12.86;100.00;99615.16;6217178;28;20062;-73
2023/10/15 11:55:09;;;;;;;9.10;2.60;;;;;;;13.01;100.00;99613.09;6218854;28;20057;-73
2023/10/15 11:58:10;;;;;;;8.95;2.15;;;;;;;13.02;100.00;99612.16;6217905;28;20046;-74
2023/10/15 12:01:14;;;;;;;8.88;2.15;;;;;;;13.03;99.78;99612.06;6200878;28;20061;-73
2023/10/15 12:04:15;;;;;;;6.22;2.20;;;;;;;12.95;100.00;99611.81;6193900;28;20054;-73
2023/10/15 12:07:17;;;;;;;5.78;1.90;;;;;;;13.04;98.11;99611.09;6192265;28;20046;-74
2023/10/15 12:10:17;;;;;;;13.35;5.65;;;;;;;13.33;98.14;99607.16;6198030;28;20063;-73
2023/10/15 12:13:19;;;;;;;3.20;1.52;;;;;;;13.31;97.04;99604.66;6216857;28;20185;-73
2023/10/15 12:16:20;;;;;;;18.63;9.13;;;;;;;13.15;97.40;99594.53;6216764;28;20598;-74
2023/10/15 12:19:21;;;;;;;12.77;4.72;;;;;;;13.39;97.41;99607.50;6218011;28;20140;-73
2023/10/15 12:22:21;;;;;;;18.25;9.82;;;;;;;13.42;97.72;99603.78;6217527;28;20102;-73
2023/10/15 12:25:22;;;;;;;15.77;5.13;;;;;;;13.43;97.32;99616.78;6207573;28;20050;-73
2023/10/15 12:28:23;;;;;;;3.95;2.25;;;;;;;13.40;96.67;99610.94;6198674;28;20058;-73
2023/10/15 12:31:26;;;;;;;10.32;2.97;;;;;;;13.16;97.56;99611.91;6217233;28;20061;-73
2023/10/15 12:34:27;;;;;;;6.15;2.00;;;;;;;13.41;96.04;99604.78;6211569;28;20057;-74
2023/10/15 12:37:31;;;;;;;4.20;1.50;;;;;;;13.06;95.14;99613.59;6213694;28;20100;-74
2023/10/15 12:40:38;;;;;;;6.45;1.70;;;;;;;13.17;94.05;99612.75;6214590;28;20081;-73
2023/10/15 12:43:42;;;;;;;3.15;1.60;;;;;;;13.10;95.63;99618.47;6212914;28;20550;-73
2023/10/15 12:46:44;;;;;;;9.35;1.65;;;;;;;13.13;92.67;99633.09;6196034;28;20054;-73
2023/10/15 12:49:45;;;;;;;6.35;1.77;;;;;;;13.15;92.32;99635.59;6218760;28;20161;-73
2023/10/15 12:52:47;;;;;;;6.10;1.70;;;;;;;13.15;92.60;99635.59;6196525;28;20058;-73
2023/10/15 12:55:48;;;;;;;2.92;1.35;;;;;;;12.98;91.79;99647.41;6214326;28;20046;-73
2023/10/15 12:58:49;;;;;;;2.70;1.10;;;;;;;12.93;92.67;99646.91;6212123;28;20061;-73
2023/10/15 13:01:50;;;;;;;5.00;1.40;;;;;;;12.77;91.99;99648.09;6205187;28;20050;-73
2023/10/15 13:04:51;;;;;;;4.97;1.20;;;;;;;13.04;92.36;99649.56;6197765;28;20486;-73
2023/10/15 13:07:54;;;;;;;6.05;2.00;;;;;;;13.13;92.57;99651.44;6199851;28;20095;-73
2023/10/15 13:10:55;;;;;;;4.93;1.88;;;;;;;13.25;91.05;99649.66;6202381;28;20058;-73
2023/10/15 13:13:56;;;;;;;8.45;3.33;;;;;;;13.13;90.49;99645.38;6206780;28;20398;-72
2023/10/15 13:16:56;;;;;;;8.18;2.53;;;;;;;13.19;91.92;99639.66;6218885;28;20046;-73
2023/10/15 13:19:57;;;;;;;5.97;2.10;;;;;;;13.16;92.40;99637.25;6210721;28;20050;-73
2023/10/15 13:23:01;;;;;;;9.07;1.80;;;;;;;13.33;91.60;99634.19;6203715;28;20058;-73
2023/10/15 13:26:04;;;;;;;4.93;2.08;;;;;;;13.47;90.95;99630.50;6213518;28;20042;-73
2023/10/15 13:29:05;;;;;;;4.50;1.83;;;;;;;13.42;90.13;99630.00;6214128;28;20509;-73
2023/10/15 13:32:07;;;;;;;9.37;2.50;;;;;;;13.35;91.25;99634.09;6213683;28;20172;-73
2023/10/15 13:35:10;;;;;;;5.70;2.40;;;;;;;13.44;91.80;99634.16;6212003;28;20042;-73
2023/10/15 13:38:13;;;;;;;8.57;2.58;;;;;;;13.47;91.35;99626.06;6199362;28;20050;-72
2023/10/15 13:41:14;;;;;;;4.47;1.48;;;;;;;13.38;90.63;99634.66;6206075;28;20433;-73
2023/10/15 13:44:18;;;;;;;6.18;2.20;;;;;;;13.30;90.83;99644.91;6198416;28;20054;-72
2023/10/15 13:47:19;;;;;;;10.73;5.22;;;;;;;13.39;92.67;99622.41;6205175;28;20574;-72
2023/10/15 13:50:19;;;;;;;6.82;2.67;;;;;;;13.39;92.05;99617.97;6212248;28;20054;-73
2023/10/15 13:53:20;;;;;;;5.18;1.90;;;;;;;13.47;90.30;99604.28;6195488;28;20058;-72
2023/10/15 13:56:21;;;;;;;18.23;8.02;;;;;;;13.24;91.70;99598.19;6216905;28;20508;-72
2023/10/15 13:59:22;;;;;;;7.80;2.60;;;;;;;13.52;89.89;99598.66;6207541;28;20195;-73
2023/10/15 14:02:26;;;;;;;5.13;2.17;;;;;;;13.53;90.38;99603.78;6198039;28;20093;-72
2023/10/15 14:05:26;;;;;;;9.35;2.88;;;;;;;13.48;89.89;99603.31;6219546;28;20413;-73
2023/10/15 14:08:28;;;;;;;9.00;2.78;;;;;;;13.55;91.34;99601.88;6219782;28;20121;-73
2023/10/15 14:11:29;;;;;;;4.18;2.40;;;;;;;13.56;90.66;99585.19;6219396;28;20493;-73
2023/10/15 14:14:31;;;;;;;8.55;2.33;;;;;;;13.35;90.00;99585.13;6202206;28;20057;-74
2023/10/15 14:17:32;;;;;;;12.50;2.42;;;;;;;13.36;90.33;99599.03;6196429;28;20054;-73
2023/10/15 14:20:33;;;;;;;4.80;2.10;;;;;;;13.38;89.48;99599.75;6194855;28;20058;-73
2023/10/15 14:23:34;;;;;;;6.07;2.08;;;;;;;13.24;89.40;99601.66;6196427;28;20059;-73
2023/10/15 14:26:35;;;;;;;5.47;1.98;;;;;;;13.40;89.95;99588.19;6196296;28;20054;-73
2023/10/15 14:29:36;;;;;;;8.90;2.45;;;;;;;13.34;89.07;99587.84;6194796;28;20053;-73
2023/10/15 14:32:37;;;;;;;9.35;2.50;;;;;;;13.41;89.23;99605.59;6213616;28;20052;-73
2023/10/15 14:35:41;;;;;;;5.40;2.13;;;;;;;13.26;86.41;99617.25;6215043;28;20409;-72